메인 페이지
METAR-TAF:

METAR-TAF

공항 :

이바토 공항

안타나나리보, 마다가스카르

위도: 18-48S, 경도: 047-29E, 고도: 1279m

현재 날씨관측

예보는 36분 전, 02:30시(UTC)에 발표되었습니다.
여러 방향의 바람 1kt
온도 11°C
습도 94%
기압 1022 hPa
시정 10km 이상
고도 1700ft 상공 구름 조금

METAR: FMMI 160230Z VRB01KT 9999 FEW017 11/10 Q1022 NOSIG

시각: 06:06 (03:06 UTC)

예보

예보는 4 시간 6분 전, 23:00시(UTC)에 발표되었습니다.
예보 대상 시간: 16일 00시부터 17일 06시까지 (UTC)
여러 방향의 바람 3kt
시정 10km 이상
고도 400ft 상공 구름 조금
고도 2000ft 상공 구름 보통
확률 40%
16일 01시부터 16일 06시까지 (UTC)
시정: 0400m
고도 400ft 상공 구름 많음
안개
전환 중
16일 10시부터 16일 13시까지 (UTC)
13kt
전환 중
16일 16시부터 16일 19시까지 (UTC)
여러 방향의 바람 3kt

TAF: FMMI 152300Z 1600/1706 VRB03KT 9999 FEW004 SCT020 PROB40 1601/1606 0400 FG BKN004 BECMG 1610/1613 10013KT BECMG 1616/1619 VRB03KT

4,000개 이상의 공항 관측 자료 및 예보 (METAR 및 TAF 보고).

지도상에서 검색 가능한 기상관측소가 노란 점과 빨간 점으로 표시되어 있습니다.

기상관측소 명을 보려면 표시 위로 마우스를 이동하세요.

날씨 관측과 예보를 보려면 클릭하세요.

지도 변경 : 확대하려면 엑스 표시가 있는 녹색 버튼, 축소하려면 빼기 표시가 있는 녹색 버튼, 다음 페이지의 지도를 보려면 녹색 화살표를 클릭하세요.


METAR-TAF: